Time;durP1;ratioP1;P1;durP2;ratioP2;P2;SDS_P1;SDS_P2;PMS_P1;PMS_P2;Temp;Humidity;BMP_temperature;BMP_pressure;BME280_temperature;BME280_humidity;BME280_pressure;Samples;Min_cycle;Max_cycle;Signal;HPM_P1;HPM_P2
2024/03/26 00:01:06;;;;;;;;;;;17.70;60.70;;;;;;5029791;28;1583;-69
2024/03/26 00:03:31;;;;;;;;;;;17.70;60.70;;;;;;4997513;28;991;-70
2024/03/26 00:05:57;;;;;;;;;;;17.70;60.70;;;;;;5000124;28;1454;-69
2024/03/26 00:08:23;;;;;;;;;;;17.70;60.70;;;;;;5032027;28;1914;-68
2024/03/26 00:10:48;;;;;;;;;;;17.70;60.70;;;;;;5002798;28;1117;-69
2024/03/26 00:13:14;;;;;;;;;;;17.70;60.70;;;;;;5000053;28;1452;-71
2024/03/26 00:15:39;;;;;;;;;;;17.70;60.70;;;;;;5000416;28;1545;-68
2024/03/26 00:18:05;;;;;;;;;;;17.70;60.70;;;;;;4997914;28;1201;-70
2024/03/26 00:20:30;;;;;;;;;;;17.70;60.70;;;;;;5019560;28;1391;-69
2024/03/26 00:22:55;;;;;;;;;;;17.70;60.70;;;;;;5001129;28;1489;-69
2024/03/26 00:25:21;;;;;;;;;;;17.70;60.80;;;;;;4998241;28;1397;-69
2024/03/26 00:27:46;;;;;;;;;;;17.70;60.80;;;;;;5001108;28;1660;-69
2024/03/26 00:30:12;;;;;;;;;;;17.70;60.80;;;;;;4999598;28;1902;-69
2024/03/26 00:32:37;;;;;;;;;;;17.70;60.80;;;;;;5014912;28;1587;-69
2024/03/26 00:35:03;;;;;;;;;;;17.70;60.80;;;;;;5001188;28;1641;-69
2024/03/26 00:37:28;;;;;;;;;;;17.70;60.80;;;;;;5016670;28;1484;-69
2024/03/26 00:39:54;;;;;;;;;;;17.70;60.80;;;;;;5031553;28;1564;-69
2024/03/26 00:42:19;;;;;;;;;;;17.70;60.80;;;;;;5029917;28;1482;-69
2024/03/26 00:44:45;;;;;;;;;;;17.70;60.80;;;;;;5031799;28;1615;-69
2024/03/26 00:47:10;;;;;;;;;;;17.70;60.80;;;;;;4998052;28;1490;-67
2024/03/26 00:49:36;;;;;;;;;;;17.70;60.90;;;;;;4997367;28;1906;-67
2024/03/26 00:52:01;;;;;;;;;;;17.70;60.90;;;;;;4999544;28;1365;-67
2024/03/26 00:54:27;;;;;;;;;;;17.70;60.90;;;;;;4998610;28;1472;-67
2024/03/26 00:56:52;;;;;;;;;;;17.70;60.90;;;;;;4999060;28;1571;-67
2024/03/26 00:59:17;;;;;;;;;;;17.70;60.90;;;;;;4997056;28;1327;-67
2024/03/26 01:01:43;;;;;;;;;;;17.70;60.90;;;;;;4999186;28;1726;-67
2024/03/26 01:04:08;;;;;;;;;;;17.70;60.90;;;;;;5032506;28;1570;-67
2024/03/26 01:06:34;;;;;;;;;;;17.70;60.90;;;;;;5035062;28;1480;-68
2024/03/26 01:08:59;;;;;;;;;;;17.70;60.90;;;;;;5036474;28;1910;-69
2024/03/26 01:11:25;;;;;;;;;;;17.70;61.00;;;;;;5003778;28;1245;-69
2024/03/26 01:13:52;;;;;;;;;;;17.70;61.00;;;;;;5000149;28;1330;-69
2024/03/26 01:16:17;;;;;;;;;;;17.70;61.00;;;;;;5002445;28;1253;-69
2024/03/26 01:18:43;;;;;;;;;;;17.70;61.00;;;;;;5002197;28;1488;-69
2024/03/26 01:21:08;;;;;;;;;;;17.70;61.00;;;;;;5003202;28;1314;-69
2024/03/26 01:23:34;;;;;;;;;;;17.70;61.00;;;;;;5031291;28;1292;-69
2024/03/26 01:25:59;;;;;;;;;;;17.70;61.00;;;;;;5002413;28;1406;-69
2024/03/26 01:28:25;;;;;;;;;;;17.70;61.00;;;;;;5001821;28;1963;-69
2024/03/26 01:30:50;;;;;;;;;;;17.70;61.10;;;;;;5004500;28;1483;-69
2024/03/26 01:33:16;;;;;;;;;;;17.70;61.00;;;;;;5033403;28;1536;-69
2024/03/26 01:35:49;;;;;;;;;;;17.70;61.10;;;;;;5003347;28;1794;-69
2024/03/26 01:38:15;;;;;;;;;;;17.70;61.10;;;;;;5018400;28;1496;-69
2024/03/26 01:40:40;;;;;;;;;;;17.70;61.10;;;;;;5001106;28;1623;-69
2024/03/26 01:43:06;;;;;;;;;;;17.70;61.10;;;;;;5004300;28;1275;-68
2024/03/26 01:45:31;;;;;;;;;;;17.70;61.10;;;;;;5033139;28;1571;-68
2024/03/26 01:47:57;;;;;;;;;;;17.70;61.10;;;;;;5035722;28;1533;-70
2024/03/26 01:50:22;;;;;;;;;;;17.70;61.10;;;;;;5004730;28;1906;-72
2024/03/26 01:52:47;;;;;;;;;;;17.60;61.10;;;;;;5001741;28;1131;-69
2024/03/26 01:55:13;;;;;;;;;;;17.70;61.10;;;;;;5032464;28;1363;-69
2024/03/26 01:57:38;;;;;;;;;;;17.70;61.10;;;;;;5034477;28;1156;-72
2024/03/26 02:00:04;;;;;;;;;;;17.70;61.20;;;;;;5020414;28;1342;-67
2024/03/26 02:02:30;;;;;;;;;;;17.70;61.10;;;;;;4998563;28;1203;-68
2024/03/26 02:04:55;;;;;;;;;;;17.70;61.20;;;;;;5003016;28;1586;-68
2024/03/26 02:07:21;;;;;;;;;;;17.60;61.10;;;;;;5002570;28;1532;-71
2024/03/26 02:09:47;;;;;;;;;;;17.60;61.10;;;;;;5001395;28;1907;-70
2024/03/26 02:12:12;;;;;;;;;;;17.60;61.20;;;;;;5035528;28;1484;-70
2024/03/26 02:14:38;;;;;;;;;;;17.60;61.20;;;;;;5001705;28;1567;-70
2024/03/26 02:17:04;;;;;;;;;;;17.60;61.20;;;;;;5001951;28;1504;-68
2024/03/26 02:19:29;;;;;;;;;;;17.70;61.20;;;;;;5033681;28;1242;-69
2024/03/26 02:21:55;;;;;;;;;;;17.70;61.30;;;;;;5035903;28;1384;-68
2024/03/26 02:24:21;;;;;;;;;;;17.60;61.20;;;;;;4998500;28;1552;-68
2024/03/26 02:26:46;;;;;;;;;;;17.60;61.20;;;;;;5001609;28;1269;-68
2024/03/26 02:29:11;;;;;;;;;;;17.60;61.20;;;;;;5003215;28;1967;-69
2024/03/26 02:31:37;;;;;;;;;;;17.60;61.20;;;;;;5001155;28;1215;-68
2024/03/26 02:34:02;;;;;;;;;;;17.60;61.20;;;;;;5002466;28;1320;-69
2024/03/26 02:36:28;;;;;;;;;;;17.60;61.20;;;;;;5034094;28;1339;-69
2024/03/26 02:38:53;;;;;;;;;;;17.60;61.30;;;;;;5001736;28;1708;-69
2024/03/26 02:41:19;;;;;;;;;;;17.60;61.20;;;;;;5033695;28;1390;-71
2024/03/26 02:43:45;;;;;;;;;;;17.60;61.30;;;;;;5001731;28;1450;-70
2024/03/26 02:46:11;;;;;;;;;;;17.60;61.30;;;;;;5001143;28;1479;-71
2024/03/26 02:48:36;;;;;;;;;;;17.60;61.30;;;;;;5035924;28;1965;-71
2024/03/26 02:51:02;;;;;;;;;;;17.60;61.30;;;;;;5030906;28;1718;-70
2024/03/26 02:53:27;;;;;;;;;;;17.60;61.30;;;;;;5001035;28;1247;-71
2024/03/26 02:55:52;;;;;;;;;;;17.60;61.30;;;;;;5000902;28;1701;-71
2024/03/26 02:58:18;;;;;;;;;;;17.60;61.30;;;;;;5032573;28;1321;-70
2024/03/26 03:00:43;;;;;;;;;;;17.60;61.40;;;;;;4999959;28;1108;-70
2024/03/26 03:03:09;;;;;;;;;;;17.60;61.40;;;;;;5001399;28;1282;-70
2024/03/26 03:05:34;;;;;;;;;;;17.60;61.40;;;;;;5030223;28;1467;-70
2024/03/26 03:08:00;;;;;;;;;;;17.60;61.40;;;;;;5000992;28;1591;-71
2024/03/26 03:10:25;;;;;;;;;;;17.60;61.40;;;;;;5018120;28;1909;-71
2024/03/26 03:12:51;;;;;;;;;;;17.60;61.40;;;;;;4999460;28;1479;-70
2024/03/26 03:15:16;;;;;;;;;;;17.60;61.40;;;;;;5018411;28;1464;-70
2024/03/26 03:17:42;;;;;;;;;;;17.60;61.40;;;;;;5000426;28;1487;-70
2024/03/26 03:20:11;;;;;;;;;;;17.60;61.40;;;;;;5000551;28;1762;-74
2024/03/26 03:22:39;;;;;;;;;;;17.60;61.50;;;;;;5002576;28;1472;-72
2024/03/26 03:25:05;;;;;;;;;;;17.60;61.40;;;;;;5032700;28;1584;-71
2024/03/26 03:27:31;;;;;;;;;;;17.60;61.40;;;;;;5032854;28;1455;-74
2024/03/26 03:29:57;;;;;;;;;;;17.60;61.50;;;;;;5025181;28;1898;-72
2024/03/26 03:32:22;;;;;;;;;;;17.60;61.50;;;;;;5003100;28;1379;-71
2024/03/26 03:34:48;;;;;;;;;;;17.60;61.50;;;;;;5030076;28;1492;-69
2024/03/26 03:37:13;;;;;;;;;;;17.60;61.50;;;;;;5001682;28;1489;-69
2024/03/26 03:39:39;;;;;;;;;;;17.60;61.50;;;;;;5001460;28;1433;-70
2024/03/26 03:42:04;;;;;;;;;;;17.60;61.50;;;;;;5017653;28;1714;-70
2024/03/26 03:44:35;;;;;;;;;;;17.60;62.20;;;;;;4999727;28;1439;-69
2024/03/26 03:47:01;;;;;;;;;;;17.60;61.50;;;;;;4996689;28;1456;-70
2024/03/26 03:49:26;;;;;;;;;;;17.60;61.50;;;;;;5001446;28;1965;-70
2024/03/26 03:51:52;;;;;;;;;;;17.60;61.50;;;;;;5034405;28;1488;-70
2024/03/26 03:54:17;;;;;;;;;;;17.60;61.50;;;;;;4997319;28;1479;-70
2024/03/26 03:56:43;;;;;;;;;;;17.60;62.20;;;;;;5032857;28;1578;-70
2024/03/26 03:59:08;;;;;;;;;;;17.60;61.50;;;;;;5000757;28;1565;-70
2024/03/26 04:01:34;;;;;;;;;;;17.60;61.50;;;;;;5000307;28;1345;-70
2024/03/26 04:03:59;;;;;;;;;;;17.60;61.50;;;;;;5032042;28;1480;-70
2024/03/26 04:06:25;;;;;;;;;;;17.60;61.50;;;;;;5018181;28;1534;-70
2024/03/26 04:08:51;;;;;;;;;;;17.60;61.50;;;;;;4997903;28;1898;-70
2024/03/26 04:11:17;;;;;;;;;;;17.60;61.50;;;;;;4997295;28;1375;-70
2024/03/26 04:13:42;;;;;;;;;;;17.60;61.50;;;;;;4995876;28;1523;-69
2024/03/26 04:16:08;;;;;;;;;;;17.60;61.60;;;;;;4997545;28;1661;-70
2024/03/26 04:18:33;;;;;;;;;;;17.60;61.60;;;;;;5001472;28;1559;-70
2024/03/26 04:20:58;;;;;;;;;;;17.60;61.60;;;;;;5030634;28;1377;-70
2024/03/26 04:23:24;;;;;;;;;;;17.60;61.60;;;;;;5000957;28;1470;-70
2024/03/26 04:25:54;;;;;;;;;;;17.60;61.50;;;;;;5033300;28;1557;-70
2024/03/26 04:28:19;;;;;;;;;;;17.60;61.60;;;;;;5029951;28;1693;-70
2024/03/26 04:30:45;;;;;;;;;;;17.60;61.60;;;;;;4998528;28;1982;-70
2024/03/26 04:33:10;;;;;;;;;;;17.60;61.60;;;;;;4996703;28;1365;-70
2024/03/26 04:35:36;;;;;;;;;;;17.60;61.60;;;;;;4999820;28;1363;-70
2024/03/26 04:38:02;;;;;;;;;;;17.60;61.60;;;;;;4999460;28;1437;-70
2024/03/26 04:40:27;;;;;;;;;;;17.60;61.60;;;;;;4999731;28;1318;-70
2024/03/26 04:42:53;;;;;;;;;;;17.60;61.60;;;;;;4999470;28;1580;-70
2024/03/26 04:45:18;;;;;;;;;;;17.60;61.60;;;;;;5000310;28;1261;-70
2024/03/26 04:47:44;;;;;;;;;;;17.60;61.60;;;;;;5028839;28;1480;-70
2024/03/26 04:50:10;;;;;;;;;;;17.60;61.60;;;;;;5000114;28;1956;-70
2024/03/26 04:52:35;;;;;;;;;;;17.60;61.60;;;;;;5002363;28;1342;-70
2024/03/26 04:55:01;;;;;;;;;;;17.60;61.60;;;;;;4999649;28;1293;-70
2024/03/26 04:57:26;;;;;;;;;;;17.60;61.60;;;;;;5000462;28;852;-70
2024/03/26 04:59:52;;;;;;;;;;;17.60;61.60;;;;;;5031615;28;1101;-70
2024/03/26 05:02:17;;;;;;;;;;;17.60;61.70;;;;;;4999761;28;1564;-70
2024/03/26 05:04:43;;;;;;;;;;;17.60;61.60;;;;;;5030939;28;1443;-70
2024/03/26 05:07:08;;;;;;;;;;;17.60;61.60;;;;;;4998450;28;1533;-70
2024/03/26 05:09:34;;;;;;;;;;;17.60;61.60;;;;;;4997742;28;1965;-70
2024/03/26 05:11:59;;;;;;;;;;;17.60;61.60;;;;;;5001162;28;1362;-70
2024/03/26 05:14:25;;;;;;;;;;;17.60;61.60;;;;;;5001092;28;2017;-73
2024/03/26 05:16:50;;;;;;;;;;;17.70;61.60;;;;;;5031450;28;1888;-70
2024/03/26 05:19:16;;;;;;;;;;;17.70;61.50;;;;;;4998135;28;1355;-69
2024/03/26 05:21:44;;;;;;;;;;;17.70;61.40;;;;;;4998816;28;1312;-70
2024/03/26 05:24:10;;;;;;;;;;;17.70;61.30;;;;;;4999333;28;1449;-70
2024/03/26 05:26:35;;;;;;;;;;;17.80;61.30;;;;;;5030174;28;1381;-69
2024/03/26 05:29:00;;;;;;;;;;;17.80;61.20;;;;;;4998554;28;1998;-69
2024/03/26 05:31:26;;;;;;;;;;;17.80;61.10;;;;;;5033001;28;1299;-70
2024/03/26 05:33:51;;;;;;;;;;;17.80;61.50;;;;;;5028594;28;1092;-70
2024/03/26 05:36:17;;;;;;;;;;;17.80;60.90;;;;;;4996682;28;1548;-71
2024/03/26 05:38:42;;;;;;;;;;;17.90;60.80;;;;;;4993119;28;1164;-69
2024/03/26 05:41:08;;;;;;;;;;;17.90;60.70;;;;;;4997445;28;955;-71
2024/03/26 05:43:33;;;;;;;;;;;17.90;60.60;;;;;;5032600;28;1125;-69
2024/03/26 05:45:59;;;;;;;;;;;18.00;60.60;;;;;;5031945;28;1284;-70
2024/03/26 05:48:24;;;;;;;;;;;18.00;60.50;;;;;;5030057;28;1448;-69
2024/03/26 05:50:50;;;;;;;;;;;18.00;60.50;;;;;;5032066;28;1902;-70
2024/03/26 05:53:16;;;;;;;;;;;18.00;60.50;;;;;;5032860;28;1117;-69
2024/03/26 05:55:42;;;;;;;;;;;18.00;60.40;;;;;;5002375;28;1386;-70
2024/03/26 05:58:07;;;;;;;;;;;18.00;60.40;;;;;;5036050;28;1485;-69
2024/03/26 06:00:33;;;;;;;;;;;18.00;60.30;;;;;;4999897;28;1514;-69
2024/03/26 06:02:58;;;;;;;;;;;18.10;60.30;;;;;;5001740;28;1334;-69
2024/03/26 06:05:24;;;;;;;;;;;18.00;60.20;;;;;;5000491;28;1508;-69
2024/03/26 06:07:49;;;;;;;;;;;18.10;60.20;;;;;;5025563;28;1532;-69
2024/03/26 06:10:15;;;;;;;;;;;18.10;60.20;;;;;;5004116;28;1930;-69
2024/03/26 06:12:41;;;;;;;;;;;18.10;60.20;;;;;;5001303;28;1538;-69
2024/03/26 06:15:09;;;;;;;;;;;18.10;60.20;;;;;;5002927;28;1269;-69
2024/03/26 06:17:35;;;;;;;;;;;18.10;60.90;;;;;;5034062;28;1263;-69
2024/03/26 06:20:00;;;;;;;;;;;18.10;60.10;;;;;;5019446;28;1538;-69
2024/03/26 06:22:26;;;;;;;;;;;18.10;60.20;;;;;;5035188;28;1542;-68
2024/03/26 06:24:52;;;;;;;;;;;18.10;60.20;;;;;;5000368;28;1452;-69
2024/03/26 06:27:17;;;;;;;;;;;18.10;60.20;;;;;;5036650;28;1531;-68
2024/03/26 06:29:43;;;;;;;;;;;18.10;60.20;;;;;;5002228;28;1906;-69
2024/03/26 06:32:09;;;;;;;;;;;18.10;60.20;;;;;;5001781;28;1416;-68
2024/03/26 06:34:35;;;;;;;;;;;18.10;60.20;;;;;;4999744;28;1679;-70
2024/03/26 06:37:01;;;;;;;;;;;18.10;60.20;;;;;;5032641;28;1580;-70
2024/03/26 06:39:26;;;;;;;;;;;18.10;60.50;;;;;;5001429;28;1474;-70
2024/03/26 06:41:52;;;;;;;;;;;18.10;60.20;;;;;;5034897;28;1443;-70
2024/03/26 06:44:18;;;;;;;;;;;18.10;60.30;;;;;;5000468;28;1351;-70
2024/03/26 06:46:43;;;;;;;;;;;18.10;60.30;;;;;;5001471;28;1509;-69
2024/03/26 06:49:09;;;;;;;;;;;18.10;60.30;;;;;;5002629;28;1894;-71
2024/03/26 06:51:34;;;;;;;;;;;18.10;60.30;;;;;;5000454;28;1448;-71
2024/03/26 06:54:00;;;;;;;;;;;18.00;60.20;;;;;;5017263;28;1278;-71
2024/03/26 06:56:25;;;;;;;;;;;18.00;60.30;;;;;;5002003;28;1335;-71
2024/03/26 06:58:50;;;;;;;;;;;18.00;60.30;;;;;;4998404;28;1461;-71
2024/03/26 07:01:16;;;;;;;;;;;18.00;60.30;;;;;;4998583;28;1403;-71
2024/03/26 07:03:41;;;;;;;;;;;18.00;60.30;;;;;;4999496;28;1548;-71
2024/03/26 07:06:09;;;;;;;;;;;18.00;60.40;;;;;;5034769;28;1737;-71
2024/03/26 07:08:35;;;;;;;;;;;18.00;60.40;;;;;;5001106;28;1624;-71
2024/03/26 07:11:01;;;;;;;;;;;18.00;61.20;;;;;;5033549;28;1890;-71
2024/03/26 07:13:27;;;;;;;;;;;18.00;60.50;;;;;;5031695;28;1527;-70
2024/03/26 07:15:55;;;;;;;;;;;18.00;60.50;;;;;;5029924;28;1256;-71
2024/03/26 07:18:21;;;;;;;;;;;18.00;60.50;;;;;;5030686;28;1321;-71
2024/03/26 07:20:47;;;;;;;;;;;18.00;60.50;;;;;;5001739;28;1406;-71
2024/03/26 07:23:12;;;;;;;;;;;18.00;60.50;;;;;;5000135;28;1664;-71
2024/03/26 07:25:38;;;;;;;;;;;18.00;60.50;;;;;;5000982;28;1636;-71
2024/03/26 07:28:03;;;;;;;;;;;18.00;60.60;;;;;;5029199;28;1417;-72
2024/03/26 07:30:29;;;;;;;;;;;18.00;60.60;;;;;;5001524;28;1911;-71
2024/03/26 07:32:54;;;;;;;;;;;18.00;60.60;;;;;;4999596;28;1321;-71
2024/03/26 07:35:20;;;;;;;;;;;17.90;60.60;;;;;;4999433;28;1563;-71
2024/03/26 07:37:45;;;;;;;;;;;17.90;60.70;;;;;;5030758;28;1481;-70
2024/03/26 07:40:11;;;;;;;;;;;17.90;60.70;;;;;;4999247;28;1462;-71
2024/03/26 07:42:37;;;;;;;;;;;17.90;60.70;;;;;;5032586;28;1460;-72
2024/03/26 07:45:03;;;;;;;;;;;18.00;60.80;;;;;;5016950;28;1327;-71
2024/03/26 07:47:28;;;;;;;;;;;17.90;60.80;;;;;;4998649;28;1621;-71
2024/03/26 07:49:54;;;;;;;;;;;17.90;60.80;;;;;;5029940;28;1902;-70
2024/03/26 07:52:19;;;;;;;;;;;17.90;60.80;;;;;;4998585;28;1467;-71
2024/03/26 07:54:45;;;;;;;;;;;17.90;60.80;;;;;;5031242;28;1602;-72
2024/03/26 07:57:10;;;;;;;;;;;17.90;60.80;;;;;;5016037;28;1607;-71
2024/03/26 07:59:35;;;;;;;;;;;17.90;60.90;;;;;;5002377;28;1440;-71
2024/03/26 08:02:01;;;;;;;;;;;17.90;60.90;;;;;;5001415;28;1533;-71
2024/03/26 08:04:26;;;;;;;;;;;17.90;60.90;;;;;;4999317;28;1528;-71
2024/03/26 08:06:52;;;;;;;;;;;17.90;60.90;;;;;;5001118;28;1609;-71
2024/03/26 08:09:17;;;;;;;;;;;17.90;60.90;;;;;;4998914;28;2017;-71
2024/03/26 08:11:43;;;;;;;;;;;17.90;61.00;;;;;;4996835;28;1486;-71
2024/03/26 08:14:08;;;;;;;;;;;17.90;61.00;;;;;;5031876;28;1109;-72
2024/03/26 08:16:34;;;;;;;;;;;17.90;61.10;;;;;;5000231;28;1388;-71
2024/03/26 08:18:59;;;;;;;;;;;17.90;61.10;;;;;;5031256;28;1292;-72
2024/03/26 08:21:25;;;;;;;;;;;17.80;61.00;;;;;;4998407;28;1485;-72
2024/03/26 08:23:50;;;;;;;;;;;17.80;61.00;;;;;;5003550;28;1218;-72
2024/03/26 08:26:16;;;;;;;;;;;17.90;61.10;;;;;;5000959;28;1355;-72
2024/03/26 08:28:41;;;;;;;;;;;17.90;61.10;;;;;;5032743;28;1965;-71
2024/03/26 08:31:07;;;;;;;;;;;17.90;61.10;;;;;;5007848;28;1372;-71
2024/03/26 08:33:33;;;;;;;;;;;17.90;61.20;;;;;;4998391;28;1325;-71
2024/03/26 08:36:04;;;;;;;;;;;17.80;61.20;;;;;;5000754;28;1584;-71
2024/03/26 08:38:30;;;;;;;;;;;17.80;61.20;;;;;;5001309;28;1058;-72
2024/03/26 08:40:56;;;;;;;;;;;17.80;61.20;;;;;;5002221;28;959;-71
2024/03/26 08:43:21;;;;;;;;;;;17.80;61.30;;;;;;4996383;28;1039;-72
2024/03/26 08:45:49;;;;;;;;;;;17.80;61.30;;;;;;5000512;28;1406;-71
2024/03/26 08:48:15;;;;;;;;;;;17.80;61.30;;;;;;4998386;28;1330;-71
2024/03/26 08:50:41;;;;;;;;;;;17.80;61.20;;;;;;5019497;28;1961;-71
2024/03/26 08:53:06;;;;;;;;;;;17.80;61.20;;;;;;5001201;28;1425;-71
2024/03/26 08:55:32;;;;;;;;;;;17.80;61.20;;;;;;5000985;28;1375;-71
2024/03/26 08:57:57;;;;;;;;;;;17.90;61.20;;;;;;5030832;28;1337;-72
2024/03/26 09:00:23;;;;;;;;;;;17.80;61.10;;;;;;4999467;28;1488;-71
2024/03/26 09:02:48;;;;;;;;;;;17.80;61.10;;;;;;4999838;28;1287;-71
2024/03/26 09:05:14;;;;;;;;;;;17.90;61.00;;;;;;5030687;28;1556;-71
2024/03/26 09:07:39;;;;;;;;;;;17.90;61.00;;;;;;5028541;28;1537;-71
2024/03/26 09:10:06;;;;;;;;;;;17.90;60.90;;;;;;5031489;28;1910;-71
2024/03/26 09:12:32;;;;;;;;;;;17.90;60.90;;;;;;4999010;28;1657;-72
2024/03/26 09:14:58;;;;;;;;;;;18.00;60.90;;;;;;5001976;28;1401;-72
2024/03/26 09:17:23;;;;;;;;;;;17.90;60.80;;;;;;4994948;28;1603;-71
2024/03/26 09:19:49;;;;;;;;;;;17.90;60.70;;;;;;5012987;28;1285;-72
2024/03/26 09:22:14;;;;;;;;;;;17.90;61.40;;;;;;5015271;28;1406;-72
2024/03/26 09:24:40;;;;;;;;;;;18.00;60.70;;;;;;4999564;28;1496;-71
2024/03/26 09:27:05;;;;;;;;;;;18.00;60.70;;;;;;5006042;28;1543;-71
2024/03/26 09:29:31;;;;;;;;;;;18.00;60.70;;;;;;5035475;28;1963;-71
2024/03/26 09:31:56;;;;;;;;;;;18.00;60.70;;;;;;5001860;28;1478;-72
2024/03/26 09:34:21;;;;;;;;;;;18.00;60.70;;;;;;5002229;28;1354;-71
2024/03/26 09:36:48;;;;;;;;;;;18.00;60.70;;;;;;5034580;28;1503;-71
2024/03/26 09:39:13;;;;;;;;;;;18.00;60.70;;;;;;5005846;28;1491;-71
2024/03/26 09:41:39;;;;;;;;;;;18.00;60.70;;;;;;5034353;28;1531;-71
2024/03/26 09:44:04;;;;;;;;;;;17.90;60.70;;;;;;5032903;28;1449;-71
2024/03/26 09:46:30;;;;;;;;;;;17.90;60.70;;;;;;5035002;28;1289;-71
2024/03/26 09:48:57;;;;;;;;;;;18.00;60.80;;;;;;5032006;28;1894;-71
2024/03/26 09:51:22;;;;;;;;;;;18.00;60.80;;;;;;5033378;28;1695;-71
2024/03/26 09:53:48;;;;;;;;;;;18.00;60.90;;;;;;5033928;28;1345;-70
2024/03/26 09:56:14;;;;;;;;;;;18.00;60.90;;;;;;5035671;28;1475;-71
2024/03/26 09:58:39;;;;;;;;;;;18.00;61.00;;;;;;5031046;28;1247;-71
2024/03/26 10:01:05;;;;;;;;;;;18.00;61.00;;;;;;5035604;28;1591;-71
2024/03/26 10:03:32;;;;;;;;;;;17.90;60.90;;;;;;5033560;28;1514;-71
2024/03/26 10:05:57;;;;;;;;;;;17.90;61.00;;;;;;5001193;28;1855;-70
2024/03/26 10:08:23;;;;;;;;;;;17.90;61.00;;;;;;4999947;28;1409;-71
2024/03/26 10:10:48;;;;;;;;;;;17.90;61.00;;;;;;5000241;28;1973;-71
2024/03/26 10:13:14;;;;;;;;;;;17.90;61.80;;;;;;5035318;28;1747;-71
2024/03/26 10:15:39;;;;;;;;;;;17.90;61.00;;;;;;5001259;28;1487;-71
2024/03/26 10:18:06;;;;;;;;;;;17.90;61.00;;;;;;5004330;28;1288;-72
2024/03/26 10:20:31;;;;;;;;;;;17.90;61.00;;;;;;5000937;28;2031;-71
2024/03/26 10:23:00;;;;;;;;;;;17.90;61.00;;;;;;5000070;28;1845;-71
2024/03/26 10:25:26;;;;;;;;;;;17.90;61.00;;;;;;5033644;28;1386;-72
2024/03/26 10:27:52;;;;;;;;;;;17.90;61.10;;;;;;5003728;28;1443;-72
2024/03/26 10:30:17;;;;;;;;;;;17.90;61.00;;;;;;5034057;28;1905;-72
2024/03/26 10:32:43;;;;;;;;;;;17.90;61.10;;;;;;5037201;28;1347;-71
2024/03/26 10:35:08;;;;;;;;;;;17.90;61.10;;;;;;5032024;28;1707;-72
2024/03/26 10:37:34;;;;;;;;;;;17.90;61.10;;;;;;5033333;28;1651;-71
2024/03/26 10:40:04;;;;;;;;;;;17.90;61.10;;;;;;5034794;28;1509;-72
2024/03/26 10:42:29;;;;;;;;;;;17.90;61.10;;;;;;5033711;28;1466;-71
2024/03/26 10:44:57;;;;;;;;;;;17.90;61.10;;;;;;5017810;28;1566;-72
2024/03/26 10:47:23;;;;;;;;;;;17.90;61.20;;;;;;5032346;28;863;-72
2024/03/26 10:49:49;;;;;;;;;;;17.90;61.20;;;;;;5032861;28;1961;-72
2024/03/26 10:52:14;;;;;;;;;;;17.90;61.20;;;;;;5002616;28;1291;-71
2024/03/26 10:54:40;;;;;;;;;;;17.90;61.20;;;;;;5002004;28;1647;-71
2024/03/26 10:57:05;;;;;;;;;;;17.90;61.20;;;;;;5035686;28;1609;-71
2024/03/26 10:59:31;;;;;;;;;;;17.90;61.20;;;;;;5028627;28;1265;-71
2024/03/26 11:01:56;;;;;;;;;;;17.90;61.20;;;;;;5003426;28;923;-72
2024/03/26 11:04:22;;;;;;;;;;;17.90;61.20;;;;;;5032351;28;1348;-71
2024/03/26 11:06:48;;;;;;;;;;;17.90;61.30;;;;;;5034503;28;973;-72
2024/03/26 11:09:15;;;;;;;;;;;17.90;61.30;;;;;;5035090;28;1914;-72
2024/03/26 11:11:40;;;;;;;;;;;17.90;61.30;;;;;;5032184;28;1274;-71
2024/03/26 11:14:06;;;;;;;;;;;17.90;61.30;;;;;;5001479;28;1522;-72
2024/03/26 11:16:41;;;;;;;;;;;17.80;61.20;;;;;;5020570;28;1281;-71
2024/03/26 11:19:15;;;;;;;;;;;17.80;61.30;;;;;;5005047;28;1191;-71
2024/03/26 11:21:41;;;;;;;;;;;17.80;61.30;;;;;;5002962;28;1368;-72
2024/03/26 11:24:06;;;;;;;;;;;17.80;61.30;;;;;;5033763;28;1400;-71
2024/03/26 11:26:31;;;;;;;;;;;17.80;61.30;;;;;;4997656;28;1351;-71
2024/03/26 11:28:57;;;;;;;;;;;17.80;61.40;;;;;;5030674;28;1907;-71
2024/03/26 11:31:23;;;;;;;;;;;17.80;62.20;;;;;;5017751;28;1273;-71
2024/03/26 11:33:52;;;;;;;;;;;17.80;61.40;;;;;;5033130;28;1506;-70
2024/03/26 11:36:18;;;;;;;;;;;17.80;61.40;;;;;;5005524;28;1346;-72
2024/03/26 11:38:43;;;;;;;;;;;17.80;61.50;;;;;;5030866;28;1907;-71
2024/03/26 11:41:09;;;;;;;;;;;17.80;61.50;;;;;;5033900;28;1695;-71
2024/03/26 11:43:38;;;;;;;;;;;17.80;61.50;;;;;;5033850;28;1297;-71
2024/03/26 11:46:04;;;;;;;;;;;17.80;61.50;;;;;;5002801;28;1546;-70
2024/03/26 11:48:29;;;;;;;;;;;17.80;61.60;;;;;;5001733;28;1565;-71
2024/03/26 11:50:55;;;;;;;;;;;17.80;61.60;;;;;;5031690;28;1894;-71
2024/03/26 11:53:20;;;;;;;;;;;17.80;61.60;;;;;;5031291;28;1576;-70
2024/03/26 11:55:46;;;;;;;;;;;17.80;61.60;;;;;;5000835;28;1359;-70
2024/03/26 11:58:11;;;;;;;;;;;17.80;61.60;;;;;;5000517;28;1340;-71
2024/03/26 12:00:36;;;;;;;;;;;17.80;61.60;;;;;;5000749;28;1453;-71
2024/03/26 12:03:02;;;;;;;;;;;17.80;61.60;;;;;;5001593;28;1262;-71
2024/03/26 12:05:27;;;;;;;;;;;17.80;61.60;;;;;;5002829;28;1727;-70
2024/03/26 12:07:53;;;;;;;;;;;17.80;61.70;;;;;;5021870;28;1491;-71
2024/03/26 12:10:18;;;;;;;;;;;17.80;61.70;;;;;;5036131;28;1989;-71
2024/03/26 12:12:44;;;;;;;;;;;17.80;61.70;;;;;;5028713;28;1548;-71
2024/03/26 12:15:11;;;;;;;;;;;17.80;61.70;;;;;;5030366;28;1628;-71
2024/03/26 12:17:36;;;;;;;;;;;17.80;61.70;;;;;;5031573;28;1356;-72
2024/03/26 12:20:06;;;;;;;;;;;17.80;61.70;;;;;;4999157;28;1382;-72
2024/03/26 12:22:32;;;;;;;;;;;17.70;61.80;;;;;;5032912;28;1342;-72
2024/03/26 12:24:57;;;;;;;;;;;17.70;61.70;;;;;;5027525;28;1329;-71
2024/03/26 12:27:22;;;;;;;;;;;17.70;61.80;;;;;;5031639;28;1372;-72
2024/03/26 12:29:48;;;;;;;;;;;17.70;61.80;;;;;;5014118;28;1906;-72
2024/03/26 12:32:13;;;;;;;;;;;17.70;61.80;;;;;;5017075;28;1386;-71
2024/03/26 12:34:40;;;;;;;;;;;17.70;61.80;;;;;;5030798;28;1414;-72
2024/03/26 12:37:05;;;;;;;;;;;17.70;61.80;;;;;;5030373;28;1577;-71
2024/03/26 12:39:31;;;;;;;;;;;17.70;61.80;;;;;;5031510;28;1614;-71
2024/03/26 12:41:56;;;;;;;;;;;17.70;61.90;;;;;;4999308;28;1603;-72
2024/03/26 12:44:22;;;;;;;;;;;17.70;61.90;;;;;;5030817;28;1679;-71
2024/03/26 12:46:47;;;;;;;;;;;17.70;61.90;;;;;;4989712;28;1462;-71
2024/03/26 12:49:19;;;;;;;;;;;17.70;61.90;;;;;;5001469;28;1975;-72
2024/03/26 12:51:44;;;;;;;;;;;17.70;62.00;;;;;;4998784;28;1659;-71
2024/03/26 12:54:10;;;;;;;;;;;17.70;62.00;;;;;;5032321;28;1675;-72
2024/03/26 12:56:35;;;;;;;;;;;17.70;62.00;;;;;;4998533;28;1468;-72
2024/03/26 12:59:02;;;;;;;;;;;17.70;62.00;;;;;;5029531;28;1529;-72
2024/03/26 13:01:27;;;;;;;;;;;17.70;62.00;;;;;;5020477;28;1269;-71
2024/03/26 13:03:53;;;;;;;;;;;17.70;62.00;;;;;;5035967;28;1460;-71
2024/03/26 13:06:18;;;;;;;;;;;17.70;62.10;;;;;;5002645;28;1387;-71
2024/03/26 13:08:44;;;;;;;;;;;17.70;62.00;;;;;;5034712;28;1325;-71
2024/03/26 13:11:12;;;;;;;;;;;17.70;62.10;;;;;;5000359;28;1955;-71
2024/03/26 13:13:42;;;;;;;;;;;17.60;62.00;;;;;;4999832;28;1252;-71
2024/03/26 13:16:07;;;;;;;;;;;17.70;62.10;;;;;;5032734;28;1473;-71
2024/03/26 13:18:33;;;;;;;;;;;17.70;62.10;;;;;;5033935;28;958;-71
2024/03/26 13:20:58;;;;;;;;;;;17.70;62.20;;;;;;5000485;28;1235;-72
2024/03/26 13:23:24;;;;;;;;;;;17.70;62.20;;;;;;5021858;28;1335;-71
2024/03/26 13:25:49;;;;;;;;;;;17.70;62.10;;;;;;5035443;28;1400;-71
2024/03/26 13:28:15;;;;;;;;;;;17.70;62.00;;;;;;5003206;28;1483;-71
2024/03/26 13:30:40;;;;;;;;;;;17.70;62.00;;;;;;4998506;28;1926;-71
2024/03/26 13:33:06;;;;;;;;;;;17.70;61.90;;;;;;5004795;28;1392;-71
2024/03/26 13:35:32;;;;;;;;;;;17.70;61.80;;;;;;5035126;28;1252;-72
2024/03/26 13:37:57;;;;;;;;;;;17.70;61.80;;;;;;5001221;28;1433;-71
2024/03/26 13:40:23;;;;;;;;;;;17.80;61.80;;;;;;5033623;28;1329;-71
2024/03/26 13:42:48;;;;;;;;;;;17.80;61.70;;;;;;5036847;28;1472;-71
2024/03/26 13:45:14;;;;;;;;;;;17.80;61.60;;;;;;5036820;28;1706;-71
2024/03/26 13:47:40;;;;;;;;;;;17.80;61.80;;;;;;5006076;28;1259;-71
2024/03/26 13:50:06;;;;;;;;;;;17.80;61.40;;;;;;5004182;28;1875;-72
2024/03/26 13:52:31;;;;;;;;;;;17.90;61.40;;;;;;5002161;28;1154;-71
2024/03/26 13:54:57;;;;;;;;;;;17.90;61.30;;;;;;4999715;28;1276;-71
2024/03/26 13:57:23;;;;;;;;;;;17.90;61.30;;;;;;5036188;28;1585;-70
2024/03/26 13:59:49;;;;;;;;;;;17.90;61.20;;;;;;5032825;28;1082;-71
2024/03/26 14:02:14;;;;;;;;;;;17.90;61.10;;;;;;5004674;28;1310;-71
2024/03/26 14:04:40;;;;;;;;;;;17.90;61.10;;;;;;5018706;28;1272;-71
2024/03/26 14:07:08;;;;;;;;;;;17.90;61.10;;;;;;5001001;28;1805;-72
2024/03/26 14:09:37;;;;;;;;;;;18.00;61.00;;;;;;5033593;28;1914;-71
2024/03/26 14:12:02;;;;;;;;;;;18.00;61.00;;;;;;4999450;28;856;-71
2024/03/26 14:14:27;;;;;;;;;;;18.00;60.90;;;;;;5032612;28;1372;-71
2024/03/26 14:16:53;;;;;;;;;;;18.00;60.90;;;;;;5002563;28;1545;-71
2024/03/26 14:19:18;;;;;;;;;;;18.00;60.90;;;;;;5001806;28;1458;-71
2024/03/26 14:21:46;;;;;;;;;;;18.00;60.90;;;;;;5033261;28;1579;-71